sensor_id;sensor_type;location;lat;lon;timestamp;P1;durP1;ratioP1;P2;durP2;ratioP2
77573;SDS011;66710;48.868;9.080;2023-08-12T00:00:05;9.90;;;7.70;;
77573;SDS011;66710;48.868;9.080;2023-08-12T00:02:37;10.25;;;7.55;;
77573;SDS011;66710;48.868;9.080;2023-08-12T00:05:06;11.40;;;7.82;;
77573;SDS011;66710;48.868;9.080;2023-08-12T00:07:32;11.05;;;8.10;;
77573;SDS011;66710;48.868;9.080;2023-08-12T00:09:58;10.43;;;7.50;;
77573;SDS011;66710;48.868;9.080;2023-08-12T00:12:24;11.02;;;7.35;;
77573;SDS011;66710;48.868;9.080;2023-08-12T00:14:49;11.23;;;6.82;;
77573;SDS011;66710;48.868;9.080;2023-08-12T00:17:15;9.05;;;6.78;;
77573;SDS011;66710;48.868;9.080;2023-08-12T00:19:40;11.43;;;6.57;;
77573;SDS011;66710;48.868;9.080;2023-08-12T00:22:05;10.07;;;6.80;;
77573;SDS011;66710;48.868;9.080;2023-08-12T00:24:30;10.77;;;7.18;;
77573;SDS011;66710;48.868;9.080;2023-08-12T00:26:56;17.52;;;7.05;;
77573;SDS011;66710;48.868;9.080;2023-08-12T00:29:21;13.63;;;7.65;;
77573;SDS011;66710;48.868;9.080;2023-08-12T00:31:46;10.23;;;6.78;;
77573;SDS011;66710;48.868;9.080;2023-08-12T00:34:12;9.07;;;7.25;;
77573;SDS011;66710;48.868;9.080;2023-08-12T00:36:37;9.75;;;7.03;;
77573;SDS011;66710;48.868;9.080;2023-08-12T00:39:02;9.13;;;7.15;;
77573;SDS011;66710;48.868;9.080;2023-08-12T00:41:29;11.68;;;7.20;;
77573;SDS011;66710;48.868;9.080;2023-08-12T00:43:54;10.50;;;7.45;;
77573;SDS011;66710;48.868;9.080;2023-08-12T00:46:20;10.32;;;6.97;;
77573;SDS011;66710;48.868;9.080;2023-08-12T00:48:45;9.88;;;6.97;;
77573;SDS011;66710;48.868;9.080;2023-08-12T00:51:10;9.90;;;7.07;;
77573;SDS011;66710;48.868;9.080;2023-08-12T00:53:36;8.90;;;7.28;;
77573;SDS011;66710;48.868;9.080;2023-08-12T00:56:02;10.05;;;6.85;;
77573;SDS011;66710;48.868;9.080;2023-08-12T00:58:28;9.02;;;6.75;;
77573;SDS011;66710;48.868;9.080;2023-08-12T01:00:53;9.68;;;7.45;;
77573;SDS011;66710;48.868;9.080;2023-08-12T01:03:19;9.57;;;7.30;;
77573;SDS011;66710;48.868;9.080;2023-08-12T01:05:44;10.75;;;7.00;;
77573;SDS011;66710;48.868;9.080;2023-08-12T01:08:11;9.32;;;7.35;;
77573;SDS011;66710;48.868;9.080;2023-08-12T01:10:36;8.80;;;6.85;;
77573;SDS011;66710;48.868;9.080;2023-08-12T01:16:01;9.47;;;7.03;;
77573;SDS011;66710;48.868;9.080;2023-08-12T01:18:30;10.32;;;7.40;;
77573;SDS011;66710;48.868;9.080;2023-08-12T01:20:56;9.07;;;6.93;;
77573;SDS011;66710;48.868;9.080;2023-08-12T01:23:23;8.40;;;7.07;;
77573;SDS011;66710;48.868;9.080;2023-08-12T01:25:49;10.65;;;7.30;;
77573;SDS011;66710;48.868;9.080;2023-08-12T01:28:14;9.75;;;7.18;;
77573;SDS011;66710;48.868;9.080;2023-08-12T01:30:43;9.13;;;6.80;;
77573;SDS011;66710;48.868;9.080;2023-08-12T01:33:19;12.00;;;7.40;;
77573;SDS011;66710;48.868;9.080;2023-08-12T01:35:50;10.95;;;7.63;;
77573;SDS011;66710;48.868;9.080;2023-08-12T01:38:23;8.88;;;6.97;;
77573;SDS011;66710;48.868;9.080;2023-08-12T01:40:50;9.30;;;6.70;;
77573;SDS011;66710;48.868;9.080;2023-08-12T01:43:17;11.15;;;7.07;;
77573;SDS011;66710;48.868;9.080;2023-08-12T01:45:42;10.80;;;6.72;;
77573;SDS011;66710;48.868;9.080;2023-08-12T01:48:08;9.88;;;7.00;;
77573;SDS011;66710;48.868;9.080;2023-08-12T01:50:34;10.38;;;6.97;;
77573;SDS011;66710;48.868;9.080;2023-08-12T01:52:59;10.68;;;7.30;;
77573;SDS011;66710;48.868;9.080;2023-08-12T01:55:25;8.00;;;6.80;;
77573;SDS011;66710;48.868;9.080;2023-08-12T01:57:50;9.85;;;6.82;;
77573;SDS011;66710;48.868;9.080;2023-08-12T02:00:15;8.40;;;6.85;;
77573;SDS011;66710;48.868;9.080;2023-08-12T02:02:41;10.98;;;7.20;;
77573;SDS011;66710;48.868;9.080;2023-08-12T02:05:06;10.27;;;7.03;;
77573;SDS011;66710;48.868;9.080;2023-08-12T02:07:31;8.73;;;6.82;;
77573;SDS011;66710;48.868;9.080;2023-08-12T02:09:57;9.00;;;7.05;;
77573;SDS011;66710;48.868;9.080;2023-08-12T02:12:22;10.20;;;7.30;;
77573;SDS011;66710;48.868;9.080;2023-08-12T02:14:47;8.68;;;6.88;;
77573;SDS011;66710;48.868;9.080;2023-08-12T02:17:12;10.93;;;6.97;;
77573;SDS011;66710;48.868;9.080;2023-08-12T02:19:38;7.90;;;6.38;;
77573;SDS011;66710;48.868;9.080;2023-08-12T02:22:03;9.65;;;6.63;;
77573;SDS011;66710;48.868;9.080;2023-08-12T02:24:29;8.55;;;6.65;;
77573;SDS011;66710;48.868;9.080;2023-08-12T02:26:55;8.85;;;6.57;;
77573;SDS011;66710;48.868;9.080;2023-08-12T02:29:20;8.77;;;6.70;;
77573;SDS011;66710;48.868;9.080;2023-08-12T02:31:45;8.90;;;7.00;;
77573;SDS011;66710;48.868;9.080;2023-08-12T02:34:11;8.57;;;6.68;;
77573;SDS011;66710;48.868;9.080;2023-08-12T02:36:36;10.27;;;7.47;;
77573;SDS011;66710;48.868;9.080;2023-08-12T02:39:01;9.55;;;6.45;;
77573;SDS011;66710;48.868;9.080;2023-08-12T02:41:27;9.95;;;6.50;;
77573;SDS011;66710;48.868;9.080;2023-08-12T02:43:52;9.95;;;6.43;;
77573;SDS011;66710;48.868;9.080;2023-08-12T02:46:17;8.70;;;6.28;;
77573;SDS011;66710;48.868;9.080;2023-08-12T02:48:43;8.05;;;6.22;;
77573;SDS011;66710;48.868;9.080;2023-08-12T02:51:08;7.93;;;6.50;;
77573;SDS011;66710;48.868;9.080;2023-08-12T02:53:34;9.40;;;6.53;;
77573;SDS011;66710;48.868;9.080;2023-08-12T02:56:00;7.50;;;5.88;;
77573;SDS011;66710;48.868;9.080;2023-08-12T02:58:25;7.90;;;6.18;;
77573;SDS011;66710;48.868;9.080;2023-08-12T03:00:50;7.45;;;5.68;;
77573;SDS011;66710;48.868;9.080;2023-08-12T03:03:16;8.18;;;6.18;;
77573;SDS011;66710;48.868;9.080;2023-08-12T03:05:41;7.45;;;6.07;;
77573;SDS011;66710;48.868;9.080;2023-08-12T03:08:08;11.35;;;6.45;;
77573;SDS011;66710;48.868;9.080;2023-08-12T03:10:33;8.57;;;6.25;;
77573;SDS011;66710;48.868;9.080;2023-08-12T03:12:59;8.50;;;6.63;;
77573;SDS011;66710;48.868;9.080;2023-08-12T03:15:24;7.28;;;6.00;;
77573;SDS011;66710;48.868;9.080;2023-08-12T03:17:50;8.98;;;6.28;;
77573;SDS011;66710;48.868;9.080;2023-08-12T03:20:15;10.27;;;6.18;;
77573;SDS011;66710;48.868;9.080;2023-08-12T03:22:40;8.88;;;6.43;;
77573;SDS011;66710;48.868;9.080;2023-08-12T03:25:06;11.00;;;6.28;;
77573;SDS011;66710;48.868;9.080;2023-08-12T03:27:31;8.15;;;5.88;;
77573;SDS011;66710;48.868;9.080;2023-08-12T03:29:57;7.60;;;5.68;;
77573;SDS011;66710;48.868;9.080;2023-08-12T03:32:22;9.27;;;6.45;;
77573;SDS011;66710;48.868;9.080;2023-08-12T03:34:49;10.07;;;6.13;;
77573;SDS011;66710;48.868;9.080;2023-08-12T03:37:14;8.02;;;6.28;;
77573;SDS011;66710;48.868;9.080;2023-08-12T03:39:39;7.93;;;6.20;;
77573;SDS011;66710;48.868;9.080;2023-08-12T03:42:05;8.88;;;6.50;;
77573;SDS011;66710;48.868;9.080;2023-08-12T03:44:30;9.02;;;6.53;;
77573;SDS011;66710;48.868;9.080;2023-08-12T03:46:55;10.23;;;6.22;;
77573;SDS011;66710;48.868;9.080;2023-08-12T03:49:20;8.57;;;6.63;;
77573;SDS011;66710;48.868;9.080;2023-08-12T03:51:46;8.63;;;6.00;;
77573;SDS011;66710;48.868;9.080;2023-08-12T03:54:11;8.88;;;6.43;;
77573;SDS011;66710;48.868;9.080;2023-08-12T03:56:36;8.70;;;5.85;;
77573;SDS011;66710;48.868;9.080;2023-08-12T03:59:01;8.75;;;6.05;;
77573;SDS011;66710;48.868;9.080;2023-08-12T04:01:27;10.25;;;6.00;;
77573;SDS011;66710;48.868;9.080;2023-08-12T04:03:52;9.02;;;6.55;;
77573;SDS011;66710;48.868;9.080;2023-08-12T04:06:17;10.30;;;6.50;;
77573;SDS011;66710;48.868;9.080;2023-08-12T04:08:43;8.30;;;6.13;;
77573;SDS011;66710;48.868;9.080;2023-08-12T04:11:08;9.38;;;6.80;;
77573;SDS011;66710;48.868;9.080;2023-08-12T04:13:33;8.30;;;6.50;;
77573;SDS011;66710;48.868;9.080;2023-08-12T04:15:59;9.32;;;6.10;;
77573;SDS011;66710;48.868;9.080;2023-08-12T04:18:24;8.73;;;5.70;;
77573;SDS011;66710;48.868;9.080;2023-08-12T04:20:49;9.27;;;6.10;;
77573;SDS011;66710;48.868;9.080;2023-08-12T04:23:16;10.38;;;6.30;;
77573;SDS011;66710;48.868;9.080;2023-08-12T04:25:45;9.55;;;5.82;;
77573;SDS011;66710;48.868;9.080;2023-08-12T04:28:12;8.30;;;6.82;;
77573;SDS011;66710;48.868;9.080;2023-08-12T04:30:45;9.82;;;7.53;;
77573;SDS011;66710;48.868;9.080;2023-08-12T04:33:13;10.25;;;6.63;;
77573;SDS011;66710;48.868;9.080;2023-08-12T04:35:39;9.05;;;6.78;;
77573;SDS011;66710;48.868;9.080;2023-08-12T04:38:05;11.63;;;6.72;;
77573;SDS011;66710;48.868;9.080;2023-08-12T04:40:31;10.18;;;6.53;;
77573;SDS011;66710;48.868;9.080;2023-08-12T04:42:58;9.75;;;6.53;;
77573;SDS011;66710;48.868;9.080;2023-08-12T04:45:23;8.27;;;6.30;;
77573;SDS011;66710;48.868;9.080;2023-08-12T04:47:49;7.47;;;6.25;;
77573;SDS011;66710;48.868;9.080;2023-08-12T04:50:14;7.50;;;6.30;;
77573;SDS011;66710;48.868;9.080;2023-08-12T04:52:39;8.43;;;6.30;;
77573;SDS011;66710;48.868;9.080;2023-08-12T04:55:05;7.88;;;6.30;;
77573;SDS011;66710;48.868;9.080;2023-08-12T04:57:30;9.55;;;6.63;;
77573;SDS011;66710;48.868;9.080;2023-08-12T04:59:56;7.43;;;6.15;;
77573;SDS011;66710;48.868;9.080;2023-08-12T05:02:21;9.43;;;7.10;;
77573;SDS011;66710;48.868;9.080;2023-08-12T05:04:50;7.72;;;6.15;;
77573;SDS011;66710;48.868;9.080;2023-08-12T05:07:16;9.45;;;6.40;;
77573;SDS011;66710;48.868;9.080;2023-08-12T05:09:41;8.07;;;6.15;;
77573;SDS011;66710;48.868;9.080;2023-08-12T05:12:09;7.10;;;5.78;;
77573;SDS011;66710;48.868;9.080;2023-08-12T05:14:34;7.97;;;6.32;;
77573;SDS011;66710;48.868;9.080;2023-08-12T05:16:59;8.85;;;6.35;;
77573;SDS011;66710;48.868;9.080;2023-08-12T05:19:25;9.00;;;6.82;;
77573;SDS011;66710;48.868;9.080;2023-08-12T05:21:50;9.35;;;5.97;;
77573;SDS011;66710;48.868;9.080;2023-08-12T05:24:15;8.98;;;6.20;;
77573;SDS011;66710;48.868;9.080;2023-08-12T05:26:40;10.30;;;6.00;;
77573;SDS011;66710;48.868;9.080;2023-08-12T05:29:06;8.52;;;5.85;;
77573;SDS011;66710;48.868;9.080;2023-08-12T05:31:31;7.43;;;5.82;;
77573;SDS011;66710;48.868;9.080;2023-08-12T05:33:56;7.55;;;6.10;;
77573;SDS011;66710;48.868;9.080;2023-08-12T05:36:21;8.27;;;6.05;;
77573;SDS011;66710;48.868;9.080;2023-08-12T05:38:47;8.52;;;5.93;;
77573;SDS011;66710;48.868;9.080;2023-08-12T05:41:12;9.75;;;6.05;;
77573;SDS011;66710;48.868;9.080;2023-08-12T05:43:37;8.18;;;6.00;;
77573;SDS011;66710;48.868;9.080;2023-08-12T05:46:02;9.10;;;5.90;;
77573;SDS011;66710;48.868;9.080;2023-08-12T05:48:28;7.72;;;5.93;;
77573;SDS011;66710;48.868;9.080;2023-08-12T05:50:53;6.43;;;5.50;;
77573;SDS011;66710;48.868;9.080;2023-08-12T05:53:19;8.07;;;6.10;;
77573;SDS011;66710;48.868;9.080;2023-08-12T05:55:44;8.60;;;5.78;;
77573;SDS011;66710;48.868;9.080;2023-08-12T05:58:09;9.65;;;6.35;;
77573;SDS011;66710;48.868;9.080;2023-08-12T06:00:34;8.48;;;6.18;;
77573;SDS011;66710;48.868;9.080;2023-08-12T06:02:59;7.35;;;6.07;;
77573;SDS011;66710;48.868;9.080;2023-08-12T06:05:25;8.10;;;5.97;;
77573;SDS011;66710;48.868;9.080;2023-08-12T06:07:50;10.90;;;6.28;;
77573;SDS011;66710;48.868;9.080;2023-08-12T06:10:15;8.27;;;6.10;;
77573;SDS011;66710;48.868;9.080;2023-08-12T06:12:41;8.27;;;6.13;;
77573;SDS011;66710;48.868;9.080;2023-08-12T06:15:06;8.95;;;6.78;;
77573;SDS011;66710;48.868;9.080;2023-08-12T06:17:31;8.15;;;6.45;;
77573;SDS011;66710;48.868;9.080;2023-08-12T06:19:57;7.68;;;6.32;;
77573;SDS011;66710;48.868;9.080;2023-08-12T06:22:22;9.82;;;6.78;;
77573;SDS011;66710;48.868;9.080;2023-08-12T06:24:47;10.57;;;6.75;;
77573;SDS011;66710;48.868;9.080;2023-08-12T06:27:13;9.45;;;6.82;;
77573;SDS011;66710;48.868;9.080;2023-08-12T06:29:38;10.90;;;7.18;;
77573;SDS011;66710;48.868;9.080;2023-08-12T06:32:03;10.10;;;7.28;;
77573;SDS011;66710;48.868;9.080;2023-08-12T06:34:29;10.45;;;6.97;;
77573;SDS011;66710;48.868;9.080;2023-08-12T06:36:54;11.30;;;7.45;;
77573;SDS011;66710;48.868;9.080;2023-08-12T06:39:19;9.95;;;7.53;;
77573;SDS011;66710;48.868;9.080;2023-08-12T06:41:44;10.45;;;7.60;;
77573;SDS011;66710;48.868;9.080;2023-08-12T06:44:10;11.20;;;8.02;;
77573;SDS011;66710;48.868;9.080;2023-08-12T06:46:35;10.07;;;7.15;;
77573;SDS011;66710;48.868;9.080;2023-08-12T06:49:00;9.75;;;7.28;;
77573;SDS011;66710;48.868;9.080;2023-08-12T06:51:25;9.38;;;7.57;;
77573;SDS011;66710;48.868;9.080;2023-08-12T06:53:51;9.00;;;6.93;;
77573;SDS011;66710;48.868;9.080;2023-08-12T06:56:16;9.68;;;7.20;;
77573;SDS011;66710;48.868;9.080;2023-08-12T06:58:41;8.85;;;6.85;;
77573;SDS011;66710;48.868;9.080;2023-08-12T07:01:07;8.30;;;6.88;;
77573;SDS011;66710;48.868;9.080;2023-08-12T07:03:32;8.15;;;6.82;;
77573;SDS011;66710;48.868;9.080;2023-08-12T07:05:57;10.98;;;6.80;;
77573;SDS011;66710;48.868;9.080;2023-08-12T07:08:23;8.32;;;6.72;;
77573;SDS011;66710;48.868;9.080;2023-08-12T07:10:48;10.60;;;6.43;;
77573;SDS011;66710;48.868;9.080;2023-08-12T07:13:13;8.63;;;6.78;;
77573;SDS011;66710;48.868;9.080;2023-08-12T07:15:39;8.57;;;6.30;;
77573;SDS011;66710;48.868;9.080;2023-08-12T07:18:04;7.65;;;5.60;;
77573;SDS011;66710;48.868;9.080;2023-08-12T07:20:30;6.95;;;5.60;;
77573;SDS011;66710;48.868;9.080;2023-08-12T07:22:55;7.53;;;5.60;;
77573;SDS011;66710;48.868;9.080;2023-08-12T07:25:20;7.45;;;5.88;;
77573;SDS011;66710;48.868;9.080;2023-08-12T07:27:46;7.75;;;5.57;;
77573;SDS011;66710;48.868;9.080;2023-08-12T07:30:11;7.38;;;5.93;;
77573;SDS011;66710;48.868;9.080;2023-08-12T07:32:37;6.85;;;5.30;;
77573;SDS011;66710;48.868;9.080;2023-08-12T07:35:03;7.35;;;5.35;;
77573;SDS011;66710;48.868;9.080;2023-08-12T07:37:30;6.93;;;5.35;;
77573;SDS011;66710;48.868;9.080;2023-08-12T07:39:56;7.82;;;5.40;;
77573;SDS011;66710;48.868;9.080;2023-08-12T07:42:21;7.28;;;5.68;;
77573;SDS011;66710;48.868;9.080;2023-08-12T07:44:46;6.80;;;5.75;;
77573;SDS011;66710;48.868;9.080;2023-08-12T07:47:11;7.25;;;5.18;;
77573;SDS011;66710;48.868;9.080;2023-08-12T07:49:37;7.47;;;5.38;;
77573;SDS011;66710;48.868;9.080;2023-08-12T07:52:03;6.47;;;5.35;;
77573;SDS011;66710;48.868;9.080;2023-08-12T07:54:28;6.45;;;4.57;;
77573;SDS011;66710;48.868;9.080;2023-08-12T07:56:54;6.78;;;4.90;;
77573;SDS011;66710;48.868;9.080;2023-08-12T07:59:19;6.88;;;5.22;;
77573;SDS011;66710;48.868;9.080;2023-08-12T08:01:45;7.18;;;4.95;;
77573;SDS011;66710;48.868;9.080;2023-08-12T08:04:10;6.03;;;4.60;;
77573;SDS011;66710;48.868;9.080;2023-08-12T08:06:36;7.32;;;4.80;;
77573;SDS011;66710;48.868;9.080;2023-08-12T08:09:01;6.75;;;4.78;;
77573;SDS011;66710;48.868;9.080;2023-08-12T08:11:28;8.45;;;5.07;;
77573;SDS011;66710;48.868;9.080;2023-08-12T08:13:54;8.05;;;4.70;;
77573;SDS011;66710;48.868;9.080;2023-08-12T08:16:19;5.38;;;4.60;;
77573;SDS011;66710;48.868;9.080;2023-08-12T08:18:44;5.28;;;4.13;;
77573;SDS011;66710;48.868;9.080;2023-08-12T08:21:09;5.88;;;4.22;;
77573;SDS011;66710;48.868;9.080;2023-08-12T08:23:35;6.75;;;4.57;;
77573;SDS011;66710;48.868;9.080;2023-08-12T08:26:00;7.63;;;4.63;;
77573;SDS011;66710;48.868;9.080;2023-08-12T08:28:26;5.70;;;4.38;;
77573;SDS011;66710;48.868;9.080;2023-08-12T08:30:51;6.60;;;4.45;;
77573;SDS011;66710;48.868;9.080;2023-08-12T08:33:16;7.15;;;4.20;;
77573;SDS011;66710;48.868;9.080;2023-08-12T08:35:41;7.03;;;4.40;;
77573;SDS011;66710;48.868;9.080;2023-08-12T08:38:07;7.18;;;4.88;;
77573;SDS011;66710;48.868;9.080;2023-08-12T08:40:32;6.20;;;4.43;;
77573;SDS011;66710;48.868;9.080;2023-08-12T08:42:59;4.93;;;4.40;;
77573;SDS011;66710;48.868;9.080;2023-08-12T08:45:28;6.88;;;4.65;;
77573;SDS011;66710;48.868;9.080;2023-08-12T08:47:57;5.18;;;4.25;;
77573;SDS011;66710;48.868;9.080;2023-08-12T08:50:24;8.52;;;4.68;;
77573;SDS011;66710;48.868;9.080;2023-08-12T08:52:50;6.05;;;4.60;;
77573;SDS011;66710;48.868;9.080;2023-08-12T08:55:17;5.93;;;4.80;;
77573;SDS011;66710;48.868;9.080;2023-08-12T08:57:43;6.65;;;5.10;;
77573;SDS011;66710;48.868;9.080;2023-08-12T09:00:09;6.18;;;4.72;;
77573;SDS011;66710;48.868;9.080;2023-08-12T09:02:36;6.85;;;4.90;;
77573;SDS011;66710;48.868;9.080;2023-08-12T09:05:02;7.80;;;5.10;;
77573;SDS011;66710;48.868;9.080;2023-08-12T09:07:28;5.95;;;5.05;;
77573;SDS011;66710;48.868;9.080;2023-08-12T09:09:56;6.97;;;5.00;;
77573;SDS011;66710;48.868;9.080;2023-08-12T09:12:24;6.22;;;5.10;;
77573;SDS011;66710;48.868;9.080;2023-08-12T09:14:49;7.60;;;5.35;;
77573;SDS011;66710;48.868;9.080;2023-08-12T09:17:14;6.60;;;5.07;;
77573;SDS011;66710;48.868;9.080;2023-08-12T09:19:40;6.38;;;5.18;;
77573;SDS011;66710;48.868;9.080;2023-08-12T09:22:07;6.45;;;5.40;;
77573;SDS011;66710;48.868;9.080;2023-08-12T09:24:36;6.00;;;5.18;;
77573;SDS011;66710;48.868;9.080;2023-08-12T09:27:01;7.68;;;5.68;;
77573;SDS011;66710;48.868;9.080;2023-08-12T09:29:30;7.13;;;5.35;;
77573;SDS011;66710;48.868;9.080;2023-08-12T09:32:12;6.22;;;5.20;;
77573;SDS011;66710;48.868;9.080;2023-08-12T09:34:45;6.60;;;5.32;;
77573;SDS011;66710;48.868;9.080;2023-08-12T09:37:12;6.05;;;5.05;;
77573;SDS011;66710;48.868;9.080;2023-08-12T09:39:38;7.20;;;5.60;;
77573;SDS011;66710;48.868;9.080;2023-08-12T09:42:03;7.03;;;5.35;;
77573;SDS011;66710;48.868;9.080;2023-08-12T09:44:29;6.85;;;5.18;;
77573;SDS011;66710;48.868;9.080;2023-08-12T09:46:57;7.20;;;5.20;;
77573;SDS011;66710;48.868;9.080;2023-08-12T09:49:24;5.85;;;5.07;;
77573;SDS011;66710;48.868;9.080;2023-08-12T09:51:50;6.78;;;5.22;;
77573;SDS011;66710;48.868;9.080;2023-08-12T09:54:16;5.95;;;4.55;;
77573;SDS011;66710;48.868;9.080;2023-08-12T09:56:42;7.03;;;4.78;;
77573;SDS011;66710;48.868;9.080;2023-08-12T09:59:11;6.55;;;4.85;;
77573;SDS011;66710;48.868;9.080;2023-08-12T10:01:40;6.95;;;4.90;;
77573;SDS011;66710;48.868;9.080;2023-08-12T10:04:09;5.97;;;5.10;;
77573;SDS011;66710;48.868;9.080;2023-08-12T10:06:38;5.65;;;5.05;;
77573;SDS011;66710;48.868;9.080;2023-08-12T10:09:03;7.35;;;5.30;;
77573;SDS011;66710;48.868;9.080;2023-08-12T10:11:33;6.93;;;4.88;;
77573;SDS011;66710;48.868;9.080;2023-08-12T10:13:58;6.57;;;5.80;;
77573;SDS011;66710;48.868;9.080;2023-08-12T10:16:26;7.03;;;5.00;;
77573;SDS011;66710;48.868;9.080;2023-08-12T10:18:54;6.00;;;4.90;;
77573;SDS011;66710;48.868;9.080;2023-08-12T10:21:22;6.20;;;4.90;;
77573;SDS011;66710;48.868;9.080;2023-08-12T10:23:49;6.10;;;5.00;;
77573;SDS011;66710;48.868;9.080;2023-08-12T10:26:15;5.80;;;5.20;;
77573;SDS011;66710;48.868;9.080;2023-08-12T10:28:42;6.10;;;5.05;;
77573;SDS011;66710;48.868;9.080;2023-08-12T10:31:08;9.65;;;5.25;;
77573;SDS011;66710;48.868;9.080;2023-08-12T10:33:36;6.70;;;5.50;;
77573;SDS011;66710;48.868;9.080;2023-08-12T10:36:03;6.93;;;5.57;;
77573;SDS011;66710;48.868;9.080;2023-08-12T10:38:30;6.45;;;5.20;;
77573;SDS011;66710;48.868;9.080;2023-08-12T10:43:55;6.82;;;5.90;;
77573;SDS011;66710;48.868;9.080;2023-08-12T10:46:33;6.90;;;5.28;;
77573;SDS011;66710;48.868;9.080;2023-08-12T10:49:05;7.70;;;4.93;;
77573;SDS011;66710;48.868;9.080;2023-08-12T10:51:45;6.85;;;4.60;;
77573;SDS011;66710;48.868;9.080;2023-08-12T10:54:14;5.93;;;4.20;;
77573;SDS011;66710;48.868;9.080;2023-08-12T11:02:30;7.80;;;5.03;;
77573;SDS011;66710;48.868;9.080;2023-08-12T11:05:08;6.75;;;4.57;;
77573;SDS011;66710;48.868;9.080;2023-08-12T11:07:38;5.57;;;4.10;;
77573;SDS011;66710;48.868;9.080;2023-08-12T11:10:16;4.97;;;3.78;;
77573;SDS011;66710;48.868;9.080;2023-08-12T11:13:01;5.93;;;3.60;;
77573;SDS011;66710;48.868;9.080;2023-08-12T11:17:58;4.45;;;3.45;;
77573;SDS011;66710;48.868;9.080;2023-08-12T11:20:24;5.65;;;3.55;;
77573;SDS011;66710;48.868;9.080;2023-08-12T11:22:54;4.70;;;3.80;;
77573;SDS011;66710;48.868;9.080;2023-08-12T11:25:20;5.05;;;3.42;;
77573;SDS011;66710;48.868;9.080;2023-08-12T11:27:46;4.38;;;3.28;;
77573;SDS011;66710;48.868;9.080;2023-08-12T11:30:17;4.30;;;3.10;;
77573;SDS011;66710;48.868;9.080;2023-08-12T11:32:44;5.45;;;3.30;;
77573;SDS011;66710;48.868;9.080;2023-08-12T11:35:11;5.47;;;3.20;;
77573;SDS011;66710;48.868;9.080;2023-08-12T11:37:39;4.97;;;3.42;;
77573;SDS011;66710;48.868;9.080;2023-08-12T11:40:06;6.35;;;4.10;;
77573;SDS011;66710;48.868;9.080;2023-08-12T11:42:34;8.25;;;4.45;;
77573;SDS011;66710;48.868;9.080;2023-08-12T11:45:01;12.02;;;6.10;;
77573;SDS011;66710;48.868;9.080;2023-08-12T11:47:27;17.52;;;6.93;;
77573;SDS011;66710;48.868;9.080;2023-08-12T11:49:52;9.50;;;4.80;;
77573;SDS011;66710;48.868;9.080;2023-08-12T11:52:18;12.02;;;6.28;;
77573;SDS011;66710;48.868;9.080;2023-08-12T11:54:44;7.28;;;5.35;;
77573;SDS011;66710;48.868;9.080;2023-08-12T11:57:09;6.65;;;4.88;;
77573;SDS011;66710;48.868;9.080;2023-08-12T11:59:35;6.95;;;4.15;;
77573;SDS011;66710;48.868;9.080;2023-08-12T12:02:02;7.15;;;3.60;;
77573;SDS011;66710;48.868;9.080;2023-08-12T12:04:28;5.13;;;2.58;;
77573;SDS011;66710;48.868;9.080;2023-08-12T12:06:56;4.70;;;3.00;;
77573;SDS011;66710;48.868;9.080;2023-08-12T12:09:22;4.45;;;2.70;;
77573;SDS011;66710;48.868;9.080;2023-08-12T12:11:51;4.93;;;2.75;;
77573;SDS011;66710;48.868;9.080;2023-08-12T12:14:17;4.97;;;2.40;;
77573;SDS011;66710;48.868;9.080;2023-08-12T12:16:43;3.60;;;2.15;;
77573;SDS011;66710;48.868;9.080;2023-08-12T12:19:17;3.45;;;2.13;;
77573;SDS011;66710;48.868;9.080;2023-08-12T12:21:50;3.08;;;2.10;;
77573;SDS011;66710;48.868;9.080;2023-08-12T12:24:17;3.35;;;2.30;;
77573;SDS011;66710;48.868;9.080;2023-08-12T12:26:44;6.40;;;2.63;;
77573;SDS011;66710;48.868;9.080;2023-08-12T12:29:10;5.22;;;2.63;;
77573;SDS011;66710;48.868;9.080;2023-08-12T12:31:39;5.35;;;2.25;;
77573;SDS011;66710;48.868;9.080;2023-08-12T12:34:05;4.97;;;2.40;;
77573;SDS011;66710;48.868;9.080;2023-08-12T12:36:31;5.90;;;2.85;;
77573;SDS011;66710;48.868;9.080;2023-08-12T12:38:58;5.28;;;3.03;;
77573;SDS011;66710;48.868;9.080;2023-08-12T12:41:25;5.03;;;2.72;;
77573;SDS011;66710;48.868;9.080;2023-08-12T12:43:50;4.60;;;3.22;;
77573;SDS011;66710;48.868;9.080;2023-08-12T12:46:16;5.82;;;3.55;;
77573;SDS011;66710;48.868;9.080;2023-08-12T12:48:42;6.43;;;4.10;;
77573;SDS011;66710;48.868;9.080;2023-08-12T12:51:08;6.45;;;3.80;;
77573;SDS011;66710;48.868;9.080;2023-08-12T12:53:33;5.93;;;4.32;;
77573;SDS011;66710;48.868;9.080;2023-08-12T12:55:59;6.78;;;4.43;;
77573;SDS011;66710;48.868;9.080;2023-08-12T12:58:28;6.32;;;3.90;;
77573;SDS011;66710;48.868;9.080;2023-08-12T13:01:01;7.10;;;5.18;;
77573;SDS011;66710;48.868;9.080;2023-08-12T13:03:27;6.82;;;5.00;;
77573;SDS011;66710;48.868;9.080;2023-08-12T13:05:52;7.53;;;5.13;;
77573;SDS011;66710;48.868;9.080;2023-08-12T13:08:18;6.32;;;4.88;;
77573;SDS011;66710;48.868;9.080;2023-08-12T13:10:43;7.60;;;4.68;;
77573;SDS011;66710;48.868;9.080;2023-08-12T13:13:09;7.07;;;4.65;;
77573;SDS011;66710;48.868;9.080;2023-08-12T13:15:34;7.18;;;4.40;;
77573;SDS011;66710;48.868;9.080;2023-08-12T13:18:00;6.88;;;4.40;;
77573;SDS011;66710;48.868;9.080;2023-08-12T13:20:25;5.70;;;4.45;;
77573;SDS011;66710;48.868;9.080;2023-08-12T13:22:51;6.38;;;4.18;;
77573;SDS011;66710;48.868;9.080;2023-08-12T13:25:16;22.33;;;4.70;;
77573;SDS011;66710;48.868;9.080;2023-08-12T13:27:41;8.82;;;4.53;;
77573;SDS011;66710;48.868;9.080;2023-08-12T13:30:07;6.90;;;4.10;;
77573;SDS011;66710;48.868;9.080;2023-08-12T13:32:33;6.25;;;4.57;;
77573;SDS011;66710;48.868;9.080;2023-08-12T13:34:58;8.63;;;5.10;;
77573;SDS011;66710;48.868;9.080;2023-08-12T13:37:23;9.30;;;5.47;;
77573;SDS011;66710;48.868;9.080;2023-08-12T13:39:49;9.18;;;5.15;;
77573;SDS011;66710;48.868;9.080;2023-08-12T13:42:14;7.35;;;4.88;;
77573;SDS011;66710;48.868;9.080;2023-08-12T13:44:39;8.80;;;5.68;;
77573;SDS011;66710;48.868;9.080;2023-08-12T13:47:05;8.90;;;6.20;;
77573;SDS011;66710;48.868;9.080;2023-08-12T13:49:31;7.88;;;5.80;;
77573;SDS011;66710;48.868;9.080;2023-08-12T13:51:56;8.18;;;5.03;;
77573;SDS011;66710;48.868;9.080;2023-08-12T13:54:24;9.60;;;5.30;;
77573;SDS011;66710;48.868;9.080;2023-08-12T13:56:49;7.05;;;5.40;;
77573;SDS011;66710;48.868;9.080;2023-08-12T13:59:15;7.63;;;5.70;;
77573;SDS011;66710;48.868;9.080;2023-08-12T14:01:40;6.85;;;5.22;;
77573;SDS011;66710;48.868;9.080;2023-08-12T14:04:06;5.43;;;4.50;;
77573;SDS011;66710;48.868;9.080;2023-08-12T14:06:31;7.22;;;5.25;;
77573;SDS011;66710;48.868;9.080;2023-08-12T14:08:56;6.80;;;5.15;;
77573;SDS011;66710;48.868;9.080;2023-08-12T14:11:22;7.43;;;4.93;;
77573;SDS011;66710;48.868;9.080;2023-08-12T14:13:47;6.40;;;4.93;;
77573;SDS011;66710;48.868;9.080;2023-08-12T14:16:12;8.23;;;4.78;;
77573;SDS011;66710;48.868;9.080;2023-08-12T14:18:38;6.68;;;4.72;;
77573;SDS011;66710;48.868;9.080;2023-08-12T14:21:03;7.13;;;4.80;;
77573;SDS011;66710;48.868;9.080;2023-08-12T14:23:29;6.20;;;4.93;;
77573;SDS011;66710;48.868;9.080;2023-08-12T14:25:54;7.20;;;4.70;;
77573;SDS011;66710;48.868;9.080;2023-08-12T14:28:20;8.02;;;4.90;;
77573;SDS011;66710;48.868;9.080;2023-08-12T14:30:45;6.07;;;4.55;;
77573;SDS011;66710;48.868;9.080;2023-08-12T14:33:11;6.70;;;4.80;;
77573;SDS011;66710;48.868;9.080;2023-08-12T14:35:36;7.72;;;4.97;;
77573;SDS011;66710;48.868;9.080;2023-08-12T14:38:01;6.35;;;4.43;;
77573;SDS011;66710;48.868;9.080;2023-08-12T14:40:27;6.75;;;4.53;;
77573;SDS011;66710;48.868;9.080;2023-08-12T14:42:53;5.60;;;4.50;;
77573;SDS011;66710;48.868;9.080;2023-08-12T14:45:18;7.15;;;4.53;;
77573;SDS011;66710;48.868;9.080;2023-08-12T14:47:43;9.02;;;4.68;;
77573;SDS011;66710;48.868;9.080;2023-08-12T14:50:09;6.13;;;4.95;;
77573;SDS011;66710;48.868;9.080;2023-08-12T14:52:35;6.43;;;5.07;;